Time;durP1;ratioP1;P1;durP2;ratioP2;P2;SDS_P1;SDS_P2;PMS_P1;PMS_P2;Temp;Humidity;BMP_temperature;BMP_pressure;BME280_temperature;BME280_humidity;BME280_pressure;Samples;Min_cycle;Max_cycle;Signal;HPM_P1;HPM_P2
2022/10/04 00:00:11;;;;;;;60.43;3.73;;;;;;;;;;5054201;28;20444;-69
2022/10/04 00:02:39;;;;;;;59.20;4.40;;;;;;;;;;5054651;28;20439;-68
2022/10/04 00:05:07;;;;;;;60.10;4.53;;;;;;;;;;5053388;28;20464;-69
2022/10/04 00:07:35;;;;;;;60.17;4.30;;;;;;;;;;5054529;28;20466;-68
2022/10/04 00:10:05;;;;;;;63.27;4.00;;;;;;;;;;5054046;28;21027;-69
2022/10/04 00:12:35;;;;;;;62.93;5.23;;;;;;;;;;5054131;28;20480;-68
2022/10/04 00:15:04;;;;;;;59.60;4.00;;;;;;;;;;5053912;28;21000;-67
2022/10/04 00:17:34;;;;;;;58.77;3.73;;;;;;;;;;5053467;28;20543;-68
2022/10/04 00:20:02;;;;;;;58.10;3.57;;;;;;;;;;5053783;28;20459;-68
2022/10/04 00:22:29;;;;;;;58.70;4.10;;;;;;;;;;5053929;28;20445;-68
2022/10/04 00:25:21;;;;;;;57.97;2.90;;;;;;;;;;5054188;28;20475;-68
2022/10/04 00:28:03;;;;;;;58.80;3.67;;;;;;;;;;5053192;28;20447;-68
2022/10/04 00:30:36;;;;;;;59.00;3.70;;;;;;;;;;5020737;28;21035;-68
2022/10/04 00:33:05;;;;;;;59.70;4.20;;;;;;;;;;5053944;28;20471;-68
2022/10/04 00:35:48;;;;;;;59.47;3.93;;;;;;;;;;5053863;28;20898;-68
2022/10/04 00:38:17;;;;;;;59.80;3.93;;;;;;;;;;5053279;28;20502;-66
2022/10/04 00:40:47;;;;;;;58.90;4.27;;;;;;;;;;5053372;28;20441;-68
2022/10/04 00:43:16;;;;;;;59.97;3.70;;;;;;;;;;5053659;28;20936;-68
2022/10/04 00:45:46;;;;;;;60.83;4.20;;;;;;;;;;5053584;28;20468;-68
2022/10/04 00:48:31;;;;;;;59.53;4.57;;;;;;;;;;5053597;28;20459;-68
2022/10/04 00:51:02;;;;;;;59.20;4.53;;;;;;;;;;5052588;28;20519;-68
2022/10/04 00:53:40;;;;;;;58.67;4.13;;;;;;;;;;5053432;28;20444;-69
2022/10/04 00:56:08;;;;;;;60.77;4.27;;;;;;;;;;5053521;28;20836;-68
2022/10/04 00:58:37;;;;;;;60.30;4.17;;;;;;;;;;5053302;28;20455;-69
2022/10/04 01:01:04;;;;;;;59.37;4.67;;;;;;;;;;5053214;28;20450;-68
2022/10/04 01:03:33;;;;;;;60.63;6.07;;;;;;;;;;5052654;28;20459;-68
2022/10/04 01:06:04;;;;;;;58.30;3.50;;;;;;;;;;5053424;28;20464;-68
2022/10/04 01:08:32;;;;;;;58.80;3.87;;;;;;;;;;5053136;28;20452;-67
2022/10/04 01:11:02;;;;;;;59.00;3.40;;;;;;;;;;5053288;28;20484;-69
2022/10/04 01:13:31;;;;;;;59.07;3.40;;;;;;;;;;5052544;28;20256;-68
2022/10/04 01:16:01;;;;;;;60.30;4.20;;;;;;;;;;5052803;28;20867;-68
2022/10/04 01:18:29;;;;;;;57.57;3.00;;;;;;;;;;5053090;28;20455;-69
2022/10/04 01:20:58;;;;;;;58.60;3.97;;;;;;;;;;5053066;28;20450;-68
2022/10/04 01:23:33;;;;;;;59.13;4.10;;;;;;;;;;5052947;28;20451;-68
2022/10/04 01:26:00;;;;;;;59.67;4.20;;;;;;;;;;5052028;28;20475;-68
2022/10/04 01:28:28;;;;;;;59.13;3.37;;;;;;;;;;5053102;28;20448;-69
2022/10/04 01:30:55;;;;;;;60.60;3.93;;;;;;;;;;5052654;28;20987;-68
2022/10/04 01:33:23;;;;;;;57.87;4.23;;;;;;;;;;5052739;28;20468;-68
2022/10/04 01:35:51;;;;;;;59.40;3.87;;;;;;;;;;5052484;28;20802;-69
2022/10/04 01:38:18;;;;;;;59.63;5.33;;;;;;;;;;5052124;28;20449;-68
2022/10/04 01:40:50;;;;;;;58.80;3.53;;;;;;;;;;5051717;28;20444;-68
2022/10/04 01:43:21;;;;;;;59.67;4.43;;;;;;;;;;5052743;28;20815;-68
2022/10/04 01:45:51;;;;;;;58.30;2.90;;;;;;;;;;5051018;28;20464;-68
2022/10/04 01:48:22;;;;;;;59.33;4.27;;;;;;;;;;5051494;28;20448;-68
2022/10/04 01:50:57;;;;;;;58.60;3.00;;;;;;;;;;5052296;28;20917;-68
2022/10/04 01:53:28;;;;;;;59.57;3.97;;;;;;;;;;5052497;28;20796;-68
2022/10/04 01:55:57;;;;;;;58.57;3.47;;;;;;;;;;5052336;28;20832;-68
2022/10/04 01:58:26;;;;;;;60.13;4.27;;;;;;;;;;5052199;28;20471;-68
2022/10/04 02:00:57;;;;;;;59.00;3.57;;;;;;;;;;5051323;28;20977;-68
2022/10/04 02:03:29;;;;;;;59.07;3.90;;;;;;;;;;5052317;28;20540;-68
2022/10/04 02:05:59;;;;;;;58.40;3.00;;;;;;;;;;5052247;28;20472;-68
2022/10/04 02:08:28;;;;;;;59.17;3.80;;;;;;;;;;5052030;28;20464;-69
2022/10/04 02:10:57;;;;;;;58.17;3.13;;;;;;;;;;5051318;28;20566;-68
2022/10/04 02:13:28;;;;;;;59.00;3.13;;;;;;;;;;5051967;28;20448;-67
2022/10/04 02:15:55;;;;;;;59.63;3.30;;;;;;;;;;5051931;28;20472;-68
2022/10/04 02:18:24;;;;;;;58.50;3.03;;;;;;;;;;5051997;28;20448;-68
2022/10/04 02:20:51;;;;;;;59.27;3.33;;;;;;;;;;5051745;28;20820;-68
2022/10/04 02:23:20;;;;;;;59.00;3.40;;;;;;;;;;5051128;28;20460;-68
2022/10/04 02:25:48;;;;;;;58.87;3.57;;;;;;;;;;5051650;28;20464;-68
2022/10/04 02:28:17;;;;;;;59.75;4.55;;;;;;;;;;5051814;28;20448;-68
2022/10/04 02:32:56;;;;;;;58.73;3.50;;;;;;;;;;5051582;28;20234;-67
2022/10/04 02:33:33;;;;;;;58.33;3.10;;;;;;;;;;5051187;28;20533;-68
2022/10/04 02:36:00;;;;;;;59.27;3.63;;;;;;;;;;5051182;28;20475;-68
2022/10/04 02:38:31;;;;;;;58.50;3.00;;;;;;;;;;5051598;28;20448;-69
2022/10/04 02:41:01;;;;;;;59.97;4.20;;;;;;;;;;5051789;28;20459;-68
2022/10/04 02:43:33;;;;;;;58.20;2.70;;;;;;;;;;5051542;28;21004;-68
2022/10/04 02:46:06;;;;;;;60.10;4.30;;;;;;;;;;5051078;28;20554;-68
2022/10/04 02:48:36;;;;;;;60.00;3.97;;;;;;;;;;5051412;28;20666;-68
2022/10/04 02:51:12;;;;;;;59.30;3.20;;;;;;;;;;5051485;28;20484;-68
2022/10/04 02:53:46;;;;;;;61.27;4.97;;;;;;;;;;5055876;28;20201;-68
2022/10/04 02:56:14;;;;;;;58.60;3.10;;;;;;;;;;5055480;28;20998;-68
2022/10/04 02:58:43;;;;;;;59.00;3.87;;;;;;;;;;5054746;28;20584;-68
2022/10/04 03:01:16;;;;;;;59.67;3.63;;;;;;;;;;5055441;28;20444;-68
2022/10/04 03:03:45;;;;;;;58.80;3.75;;;;;;;;;;5055784;28;20206;-68
2022/10/04 03:06:14;;;;;;;59.55;4.13;;;;;;;;;;5055628;28;20231;-68
2022/10/04 03:08:45;;;;;;;59.00;3.55;;;;;;;;;;5054694;28;20221;-68
2022/10/04 03:11:14;;;;;;;58.50;3.05;;;;;;;;;;5055508;28;20229;-68
2022/10/04 03:13:45;;;;;;;58.50;2.70;;;;;;;;;;5055304;28;20305;-68
2022/10/04 03:16:13;;;;;;;58.70;3.05;;;;;;;;;;5055524;28;20618;-67
2022/10/04 03:18:40;;;;;;;59.80;4.85;;;;;;;;;;5055047;28;20210;-68
2022/10/04 03:21:08;;;;;;;58.67;2.85;;;;;;;;;;5054605;28;20616;-68
2022/10/04 03:23:36;;;;;;;60.05;3.75;;;;;;;;;;5055588;28;20214;-69
2022/10/04 03:26:04;;;;;;;58.75;3.08;;;;;;;;;;5055167;28;20236;-68
2022/10/04 03:28:31;;;;;;;58.60;3.30;;;;;;;;;;5054834;28;20210;-68
2022/10/04 03:31:00;;;;;;;59.22;4.00;;;;;;;;;;5054881;28;20617;-68
2022/10/04 03:33:28;;;;;;;58.67;3.40;;;;;;;;;;5054608;28;20214;-68
2022/10/04 03:35:56;;;;;;;58.40;2.83;;;;;;;;;;5054954;28;20280;-68
2022/10/04 03:38:25;;;;;;;59.15;3.53;;;;;;;;;;5054768;28;20206;-68
2022/10/04 03:40:55;;;;;;;59.17;3.30;;;;;;;;;;5054487;28;20202;-68
2022/10/04 03:43:24;;;;;;;57.83;3.15;;;;;;;;;;5054244;28;20233;-68
2022/10/04 03:45:52;;;;;;;58.90;3.40;;;;;;;;;;5054847;28;20226;-68
2022/10/04 03:48:25;;;;;;;58.70;3.33;;;;;;;;;;5054726;28;20616;-68
2022/10/04 03:50:53;;;;;;;59.15;3.95;;;;;;;;;;5054413;28;20613;-68
2022/10/04 03:53:27;;;;;;;59.40;2.85;;;;;;;;;;5054687;28;20224;-68
2022/10/04 03:55:54;;;;;;;58.90;3.75;;;;;;;;;;5053891;28;20230;-69
2022/10/04 03:58:24;;;;;;;59.25;3.42;;;;;;;;;;5054585;28;20217;-68
2022/10/04 04:00:57;;;;;;;60.08;4.88;;;;;;;;;;5054437;28;20296;-68
2022/10/04 04:03:28;;;;;;;59.83;3.77;;;;;;;;;;5053321;28;20300;-69
2022/10/04 04:05:59;;;;;;;58.30;3.40;;;;;;;;;;5053685;28;20482;-68
2022/10/04 04:08:29;;;;;;;58.53;3.20;;;;;;;;;;5054093;28;20558;-68
2022/10/04 04:10:56;;;;;;;60.75;3.63;;;;;;;;;;5054217;28;20226;-68
2022/10/04 04:13:25;;;;;;;58.05;3.00;;;;;;;;;;5054399;28;20206;-68
2022/10/04 04:15:54;;;;;;;62.17;4.10;;;;;;;;;;5054529;28;20226;-67
2022/10/04 04:18:22;;;;;;;60.03;3.53;;;;;;;;;;5053223;28;20208;-67
2022/10/04 04:20:52;;;;;;;58.80;3.97;;;;;;;;;;5054045;28;20201;-68
2022/10/04 04:23:23;;;;;;;59.03;4.50;;;;;;;;;;5054031;28;20700;-68
2022/10/04 04:25:53;;;;;;;58.50;3.10;;;;;;;;;;5054221;28;20230;-67
2022/10/04 04:28:25;;;;;;;58.30;3.27;;;;;;;;;;5053594;28;20448;-68
2022/10/04 04:30:54;;;;;;;58.47;3.38;;;;;;;;;;5053338;28;20480;-67
2022/10/04 04:33:24;;;;;;;60.20;4.45;;;;;;;;;;5053963;28;20202;-68
2022/10/04 04:35:56;;;;;;;58.63;3.47;;;;;;;;;;5053972;28;20225;-68
2022/10/04 04:38:24;;;;;;;58.40;3.22;;;;;;;;;;5053850;28;20206;-67
2022/10/04 04:40:54;;;;;;;58.90;3.65;;;;;;;;;;5052797;28;20215;-68
2022/10/04 04:43:21;;;;;;;58.75;3.50;;;;;;;;;;5054418;28;20591;-67
2022/10/04 04:45:49;;;;;;;58.88;3.50;;;;;;;;;;5053930;28;20221;-67
2022/10/04 04:48:18;;;;;;;59.08;3.40;;;;;;;;;;5053650;28;20579;-68
2022/10/04 04:50:49;;;;;;;58.38;3.10;;;;;;;;;;5053335;28;20213;-68
2022/10/04 04:53:21;;;;;;;59.17;3.35;;;;;;;;;;5052884;28;20214;-68
2022/10/04 04:55:49;;;;;;;58.67;3.35;;;;;;;;;;5053346;28;20221;-68
2022/10/04 04:58:20;;;;;;;58.15;2.70;;;;;;;;;;5053538;28;20209;-68
2022/10/04 05:00:49;;;;;;;58.70;3.70;;;;;;;;;;5053329;28;20210;-68
2022/10/04 05:03:19;;;;;;;59.17;3.38;;;;;;;;;;5052824;28;20206;-68
2022/10/04 05:05:47;;;;;;;59.28;3.20;;;;;;;;;;5053049;28;20230;-67
2022/10/04 05:08:15;;;;;;;58.60;3.17;;;;;;;;;;5053153;28;20212;-69
2022/10/04 05:10:45;;;;;;;58.88;3.45;;;;;;;;;;5053068;28;20221;-68
2022/10/04 05:13:14;;;;;;;58.65;3.42;;;;;;;;;;5053148;28;20263;-68
2022/10/04 05:15:42;;;;;;;58.13;2.92;;;;;;;;;;5052240;28;20225;-67
2022/10/04 05:18:21;;;;;;;58.40;3.70;;;;;;;;;;5052948;28;20292;-68
2022/10/04 05:20:50;;;;;;;58.95;3.22;;;;;;;;;;5052865;28;20212;-68
2022/10/04 05:23:17;;;;;;;59.42;3.83;;;;;;;;;;5052869;28;20332;-68
2022/10/04 05:25:45;;;;;;;58.28;2.90;;;;;;;;;;5052692;28;20225;-68
2022/10/04 05:28:14;;;;;;;58.72;3.00;;;;;;;;;;5052293;28;20250;-68
2022/10/04 05:30:47;;;;;;;61.80;4.47;;;;;;;;;;5052630;28;20247;-68
2022/10/04 05:33:20;;;;;;;58.30;2.97;;;;;;;;;;5052527;28;20206;-68
2022/10/04 05:35:55;;;;;;;59.05;3.45;;;;;;;;;;5052906;28;20338;-68
2022/10/04 05:38:27;;;;;;;59.00;4.13;;;;;;;;;;5051866;28;20205;-67
2022/10/04 05:41:00;;;;;;;60.17;4.82;;;;;;;;;;5052572;28;20564;-66
2022/10/04 05:43:30;;;;;;;58.28;2.80;;;;;;;;;;5052643;28;20209;-68
2022/10/04 05:46:16;;;;;;;59.33;3.47;;;;;;;;;;5052370;28;20234;-68
2022/10/04 05:48:43;;;;;;;59.08;3.75;;;;;;;;;;5051846;28;20205;-68
2022/10/04 05:51:13;;;;;;;58.88;3.17;;;;;;;;;;5051958;28;20226;-68
2022/10/04 05:53:43;;;;;;;58.38;3.60;;;;;;;;;;5052457;28;20216;-68
2022/10/04 05:56:18;;;;;;;58.53;3.72;;;;;;;;;;5052159;28;20237;-68
2022/10/04 05:58:51;;;;;;;59.35;3.70;;;;;;;;;;5052200;28;20273;-68
2022/10/04 06:01:29;;;;;;;59.80;3.92;;;;;;;;;;5051796;28;20205;-68
2022/10/04 06:04:04;;;;;;;59.47;3.72;;;;;;;;;;5052646;28;20216;-68
2022/10/04 06:06:36;;;;;;;58.45;3.00;;;;;;;;;;5052020;28;20231;-68
2022/10/04 06:09:08;;;;;;;59.20;3.63;;;;;;;;;;5052065;28;20205;-68
2022/10/04 06:11:43;;;;;;;58.10;3.30;;;;;;;;;;5052184;28;20600;-68
2022/10/04 06:14:19;;;;;;;58.47;3.53;;;;;;;;;;5051648;28;20209;-68
2022/10/04 06:16:55;;;;;;;58.50;3.33;;;;;;;;;;5052437;28;20209;-68
2022/10/04 06:19:31;;;;;;;60.03;4.40;;;;;;;;;;5051556;28;20200;-68
2022/10/04 06:22:05;;;;;;;58.28;3.00;;;;;;;;;;5051888;28;20669;-68
2022/10/04 06:24:34;;;;;;;61.33;5.53;;;;;;;;;;5051150;28;20658;-68
2022/10/04 06:27:04;;;;;;;58.38;3.55;;;;;;;;;;5051260;28;20457;-70
2022/10/04 06:29:35;;;;;;;58.80;3.60;;;;;;;;;;5051482;28;20210;-70
2022/10/04 06:32:22;;;;;;;59.50;4.63;;;;;;;;;;5051907;28;20617;-70
2022/10/04 06:35:07;;;;;;;58.78;3.47;;;;;;;;;;5051342;28;20249;-70
2022/10/04 06:37:52;;;;;;;59.08;3.63;;;;;;;;;;5051501;28;20573;-70
2022/10/04 06:40:35;;;;;;;58.92;4.45;;;;;;;;;;5051531;28;20206;-70
2022/10/04 06:43:12;;;;;;;59.63;3.33;;;;;;;;;;5049652;28;20198;-70
2022/10/04 06:45:54;;;;;;;59.42;3.95;;;;;;;;;;5051568;28;20232;-68
2022/10/04 06:48:31;;;;;;;58.80;3.70;;;;;;;;;;5050859;28;20581;-68
2022/10/04 06:51:02;;;;;;;59.72;4.78;;;;;;;;;;5051702;28;20693;-68
2022/10/04 06:53:34;;;;;;;60.90;3.58;;;;;;;;;;5051646;28;20236;-67
2022/10/04 06:56:10;;;;;;;59.08;3.30;;;;;;;;;;5051566;28;20230;-68
2022/10/04 06:58:52;;;;;;;60.73;5.00;;;;;;;;;;5050419;28;20312;-68
2022/10/04 07:01:24;;;;;;;60.10;3.80;;;;;;;;;;5051374;28;20451;-68
2022/10/04 07:03:54;;;;;;;59.90;4.00;;;;;;;;;;5051640;28;20448;-68
2022/10/04 07:06:23;;;;;;;59.80;3.33;;;;;;;;;;5051432;28;20472;-68
2022/10/04 07:08:51;;;;;;;62.37;5.60;;;;;;;;;;5051143;28;20455;-67
2022/10/04 07:11:21;;;;;;;59.27;3.40;;;;;;;;;;5050551;28;20535;-68
2022/10/04 07:13:55;;;;;;;59.43;4.10;;;;;;;;;;5051322;28;20452;-68
2022/10/04 07:16:40;;;;;;;59.38;4.20;;;;;;;;;;5051356;28;20475;-68
2022/10/04 07:19:25;;;;;;;61.20;4.40;;;;;;;;;;5050947;28;20305;-68
2022/10/04 07:21:56;;;;;;;62.97;4.17;;;;;;;;;;5050518;28;20521;-68
2022/10/04 07:24:26;;;;;;;58.53;3.43;;;;;;;;;;5051320;28;20444;-67
2022/10/04 07:26:53;;;;;;;59.77;4.17;;;;;;;;;;5051356;28;20443;-68
2022/10/04 07:29:23;;;;;;;58.17;2.83;;;;;;;;;;5050917;28;20824;-67
2022/10/04 07:31:53;;;;;;;59.47;3.90;;;;;;;;;;5051034;28;21029;-69
2022/10/04 07:34:23;;;;;;;58.97;3.53;;;;;;;;;;5050222;28;20506;-68
2022/10/04 07:36:52;;;;;;;58.70;3.30;;;;;;;;;;5051023;28;20452;-67
2022/10/04 07:39:21;;;;;;;60.30;4.00;;;;;;;;;;5054168;28;20454;-68
2022/10/04 07:41:51;;;;;;;59.07;3.40;;;;;;;;;;5054957;28;20446;-68
2022/10/04 07:44:26;;;;;;;58.07;2.80;;;;;;;;;;5054252;28;20460;-68
2022/10/04 07:46:56;;;;;;;58.47;3.23;;;;;;;;;;5054747;28;20798;-68
2022/10/04 07:49:23;;;;;;;59.73;3.30;;;;;;;;;;5054693;28;20828;-68
2022/10/04 07:52:03;;;;;;;59.87;4.60;;;;;;;;;;5054805;28;20726;-68
2022/10/04 07:54:36;;;;;;;58.60;3.73;;;;;;;;;;5054629;28;20444;-67
2022/10/04 07:57:07;;;;;;;58.13;3.07;;;;;;;;;;5053784;28;20452;-68
2022/10/04 07:59:41;;;;;;;59.70;3.97;;;;;;;;;;5054241;28;20448;-67
2022/10/04 08:02:16;;;;;;;60.60;4.27;;;;;;;;;;5054725;28;20462;-68
2022/10/04 08:04:47;;;;;;;59.07;3.90;;;;;;;;;;5054475;28;20477;-68
2022/10/04 08:07:17;;;;;;;58.17;3.07;;;;;;;;;;5054118;28;20439;-68
2022/10/04 08:09:52;;;;;;;58.60;3.83;;;;;;;;;;5053761;28;20448;-67
2022/10/04 08:12:21;;;;;;;58.80;3.63;;;;;;;;;;5054484;28;21015;-68
2022/10/04 08:14:54;;;;;;;58.40;3.47;;;;;;;;;;5054320;28;20846;-67
2022/10/04 08:17:27;;;;;;;58.70;3.40;;;;;;;;;;5054301;28;20948;-67
2022/10/04 08:19:58;;;;;;;59.03;3.60;;;;;;;;;;5053260;28;20483;-68
2022/10/04 08:22:33;;;;;;;59.33;3.77;;;;;;;;;;5054461;28;20928;-68
2022/10/04 08:25:03;;;;;;;59.77;4.13;;;;;;;;;;5054400;28;20493;-68
2022/10/04 08:27:35;;;;;;;59.30;3.80;;;;;;;;;;5054409;28;20472;-67
2022/10/04 08:30:05;;;;;;;58.60;3.40;;;;;;;;;;5053474;28;20456;-67
2022/10/04 08:32:40;;;;;;;60.00;4.20;;;;;;;;;;5054148;28;20566;-68
2022/10/04 08:35:27;;;;;;;60.67;3.37;;;;;;;;;;5056108;28;20493;-68
2022/10/04 08:38:03;;;;;;;59.80;3.63;;;;;;;;;;5056052;28;20794;-68
2022/10/04 08:40:43;;;;;;;60.90;5.10;;;;;;;;;;5055625;28;20443;-68
2022/10/04 08:43:20;;;;;;;58.87;3.57;;;;;;;;;;5054795;28;20535;-68
2022/10/04 08:46:03;;;;;;;59.17;3.40;;;;;;;;;;5056543;28;20472;-68
2022/10/04 08:48:47;;;;;;;60.33;3.57;;;;;;;;;;5055983;28;20776;-68
2022/10/04 08:51:35;;;;;;;58.40;2.90;;;;;;;;;;5054666;28;20978;-69
2022/10/04 08:54:21;;;;;;;59.90;4.33;;;;;;;;;;5054481;28;20992;-68
2022/10/04 08:57:06;;;;;;;60.13;4.10;;;;;;;;;;5055240;28;20452;-68
2022/10/04 08:59:48;;;;;;;59.00;4.00;;;;;;;;;;5054744;28;20937;-69
2022/10/04 09:02:33;;;;;;;59.60;4.00;;;;;;;;;;5055241;28;20439;-68
2022/10/04 09:05:14;;;;;;;59.23;3.80;;;;;;;;;;5054231;28;20472;-68
2022/10/04 09:07:56;;;;;;;59.20;3.80;;;;;;;;;;5055208;28;20448;-68
2022/10/04 09:10:35;;;;;;;58.80;3.40;;;;;;;;;;5052490;28;20469;-69
2022/10/04 09:13:21;;;;;;;59.47;3.97;;;;;;;;;;5054274;28;20494;-68
2022/10/04 09:15:52;;;;;;;59.13;3.20;;;;;;;;;;5054265;28;20543;-68
2022/10/04 09:18:22;;;;;;;60.57;4.70;;;;;;;;;;5053528;28;20449;-68
2022/10/04 09:20:56;;;;;;;58.80;4.10;;;;;;;;;;5053709;28;20452;-68
2022/10/04 09:23:38;;;;;;;63.20;3.77;;;;;;;;;;5054100;28;20892;-69
2022/10/04 09:26:10;;;;;;;59.20;3.80;;;;;;;;;;5053635;28;20472;-68
2022/10/04 09:29:04;;;;;;;58.60;3.20;;;;;;;;;;5051990;28;20466;-68
2022/10/04 09:31:43;;;;;;;59.87;4.20;;;;;;;;;;5053082;28;20633;-68
2022/10/04 09:34:28;;;;;;;59.50;3.53;;;;;;;;;;5052736;28;20488;-68
2022/10/04 09:37:10;;;;;;;58.47;3.50;;;;;;;;;;5052663;28;20447;-68
2022/10/04 09:40:03;;;;;;;62.83;4.73;;;;;;;;;;5051937;28;20462;-68
2022/10/04 09:42:36;;;;;;;59.27;3.90;;;;;;;;;;5052504;28;20979;-69
2022/10/04 09:45:31;;;;;;;59.47;4.70;;;;;;;;;;5052540;28;20974;-68
2022/10/04 09:48:08;;;;;;;62.80;4.00;;;;;;;;;;5052621;28;20448;-68
2022/10/04 09:50:43;;;;;;;59.67;3.60;;;;;;;;;;5051905;28;20448;-68
2022/10/04 09:53:25;;;;;;;58.67;3.40;;;;;;;;;;5052209;28;20489;-69
2022/10/04 09:56:01;;;;;;;58.57;3.00;;;;;;;;;;5052189;28;20474;-68
2022/10/04 09:58:47;;;;;;;59.20;3.23;;;;;;;;;;5052149;28;20937;-69
2022/10/04 10:01:17;;;;;;;58.40;2.90;;;;;;;;;;5051406;28;20623;-68
2022/10/04 10:03:59;;;;;;;59.30;3.53;;;;;;;;;;5051561;28;20978;-68
2022/10/04 10:06:42;;;;;;;58.30;3.03;;;;;;;;;;5052106;28;20476;-68
2022/10/04 10:09:17;;;;;;;58.13;2.70;;;;;;;;;;5051746;28;20448;-68
2022/10/04 10:14:46;;;;;;;58.00;2.20;;;;;;;;;;5051380;28;20446;-68
2022/10/04 10:17:20;;;;;;;58.17;2.70;;;;;;;;;;5052254;28;20494;-68
2022/10/04 10:20:15;;;;;;;57.93;3.50;;;;;;;;;;5051711;28;20440;-68
2022/10/04 10:23:04;;;;;;;58.20;2.50;;;;;;;;;;5052135;28;20813;-68
2022/10/04 10:25:39;;;;;;;58.00;2.70;;;;;;;;;;5051135;28;20460;-69
2022/10/04 10:28:27;;;;;;;59.00;2.53;;;;;;;;;;5051807;28;20451;-68
2022/10/04 10:31:07;;;;;;;57.73;2.40;;;;;;;;;;5051711;28;20453;-68
2022/10/04 10:34:00;;;;;;;58.00;2.50;;;;;;;;;;5051613;28;20491;-69
2022/10/04 10:36:34;;;;;;;58.10;2.20;;;;;;;;;;5051420;28;20475;-68
2022/10/04 10:39:10;;;;;;;57.77;2.53;;;;;;;;;;5050914;28;20452;-70
2022/10/04 10:41:45;;;;;;;59.43;2.93;;;;;;;;;;5051534;28;20452;-69
2022/10/04 10:44:22;;;;;;;58.00;2.80;;;;;;;;;;5051648;28;20440;-68
2022/10/04 10:47:00;;;;;;;58.67;2.37;;;;;;;;;;5051759;28;20464;-68
2022/10/04 10:49:34;;;;;;;58.43;2.90;;;;;;;;;;5051370;28;20535;-68
2022/10/04 10:52:21;;;;;;;57.93;2.60;;;;;;;;;;5051396;28;20452;-69
2022/10/04 10:55:07;;;;;;;57.40;2.23;;;;;;;;;;5050833;28;20550;-69
2022/10/04 10:57:48;;;;;;;57.83;2.70;;;;;;;;;;5041763;28;20975;-69
2022/10/04 11:00:20;;;;;;;57.27;2.50;;;;;;;;;;5051212;28;20448;-68
2022/10/04 11:03:10;;;;;;;58.10;2.70;;;;;;;;;;5051695;28;20820;-69
2022/10/04 11:05:50;;;;;;;57.67;2.17;;;;;;;;;;5050713;28;20486;-69
2022/10/04 11:08:35;;;;;;;58.80;2.30;;;;;;;;;;5051467;28;20814;-69
2022/10/04 11:11:16;;;;;;;57.30;2.30;;;;;;;;;;5051478;28;20955;-69
2022/10/04 11:13:57;;;;;;;57.37;2.30;;;;;;;;;;5053922;28;20484;-69
2022/10/04 11:16:34;;;;;;;57.43;2.40;;;;;;;;;;5054867;28;20840;-69
2022/10/04 11:19:20;;;;;;;57.57;2.10;;;;;;;;;;5054650;28;20445;-69
2022/10/04 11:22:05;;;;;;;58.37;2.20;;;;;;;;;;5055260;28;20451;-69
2022/10/04 11:24:43;;;;;;;59.10;2.73;;;;;;;;;;5055258;28;20543;-69
2022/10/04 11:27:27;;;;;;;57.80;2.60;;;;;;;;;;5055352;28;20579;-69
2022/10/04 11:30:04;;;;;;;57.60;2.20;;;;;;;;;;5054581;28;20447;-69
2022/10/04 11:32:45;;;;;;;57.70;2.20;;;;;;;;;;5055015;28;20450;-69
2022/10/04 11:35:35;;;;;;;57.87;2.23;;;;;;;;;;5054882;28;20860;-69
2022/10/04 11:38:10;;;;;;;57.80;2.20;;;;;;;;;;5054873;28;20531;-68
2022/10/04 11:40:50;;;;;;;57.80;2.30;;;;;;;;;;5053841;28;20960;-69
2022/10/04 11:43:24;;;;;;;57.70;2.37;;;;;;;;;;5055132;28;20451;-69
2022/10/04 11:45:59;;;;;;;57.30;2.00;;;;;;;;;;5054980;28;20563;-69
2022/10/04 11:48:33;;;;;;;57.80;2.20;;;;;;;;;;5051967;28;20792;-69
2022/10/04 11:51:12;;;;;;;57.70;2.70;;;;;;;;;;5054070;28;20478;-68
2022/10/04 11:53:54;;;;;;;57.30;2.20;;;;;;;;;;5052012;28;21614;-68
2022/10/04 11:56:28;;;;;;;57.33;2.00;;;;;;;;;;5051574;28;20476;-68
2022/10/04 11:59:01;;;;;;;59.07;2.40;;;;;;;;;;5053429;28;20446;-68
2022/10/04 12:01:40;;;;;;;57.47;2.13;;;;;;;;;;5053850;28;20956;-68
2022/10/04 12:04:31;;;;;;;57.23;1.97;;;;;;;;;;5053079;28;20448;-68
2022/10/04 12:07:09;;;;;;;59.30;3.00;;;;;;;;;;4997980;28;20455;-68
2022/10/04 12:09:47;;;;;;;57.60;2.10;;;;;;;;;;5053823;28;20448;-68
2022/10/04 12:12:37;;;;;;;57.30;2.00;;;;;;;;;;5053849;28;20448;-68
2022/10/04 12:15:17;;;;;;;57.60;2.20;;;;;;;;;;5053221;28;20488;-68
2022/10/04 12:18:09;;;;;;;58.23;2.20;;;;;;;;;;5054255;28;20452;-68
2022/10/04 12:20:52;;;;;;;57.73;2.07;;;;;;;;;;5053889;28;20467;-68
2022/10/04 12:23:38;;;;;;;57.47;2.30;;;;;;;;;;5051944;28;20448;-68
2022/10/04 12:26:23;;;;;;;57.40;2.00;;;;;;;;;;5053174;28;20490;-69
2022/10/04 12:29:11;;;;;;;57.30;1.90;;;;;;;;;;5033742;28;20457;-68
2022/10/04 12:31:42;;;;;;;57.30;2.07;;;;;;;;;;5033695;28;20449;-68
2022/10/04 12:34:15;;;;;;;58.50;2.30;;;;;;;;;;5032835;28;20860;-68
2022/10/04 12:36:54;;;;;;;57.27;2.20;;;;;;;;;;5033835;28;20545;-68
2022/10/04 12:39:38;;;;;;;59.30;2.20;;;;;;;;;;5033479;28;20452;-68
2022/10/04 12:42:12;;;;;;;57.80;2.30;;;;;;;;;;5033860;28;20519;-68
2022/10/04 12:44:47;;;;;;;57.60;1.90;;;;;;;;;;5033377;28;20473;-68
2022/10/04 12:47:38;;;;;;;60.30;2.20;;;;;;;;;;5033056;28;20447;-68
2022/10/04 12:50:09;;;;;;;57.40;2.20;;;;;;;;;;5017948;28;20467;-68
2022/10/04 12:52:41;;;;;;;57.87;2.40;;;;;;;;;;5033265;28;20460;-68
2022/10/04 12:55:19;;;;;;;57.50;2.13;;;;;;;;;;5033085;28;20504;-68
2022/10/04 12:57:51;;;;;;;59.47;2.10;;;;;;;;;;5033313;28;20457;-68
2022/10/04 13:00:19;;;;;;;57.57;2.53;;;;;;;;;;5044982;28;20951;-68
2022/10/04 13:02:54;;;;;;;57.40;2.03;;;;;;;;;;5053402;28;20453;-68
2022/10/04 13:05:23;;;;;;;57.47;1.80;;;;;;;;;;5053165;28;20471;-68
2022/10/04 13:08:00;;;;;;;59.80;2.40;;;;;;;;;;5053032;28;20444;-68
2022/10/04 13:10:44;;;;;;;58.00;2.43;;;;;;;;;;5051853;28;20487;-68
2022/10/04 13:13:39;;;;;;;58.97;2.00;;;;;;;;;;5052967;28;20502;-68
2022/10/04 13:16:11;;;;;;;58.80;2.80;;;;;;;;;;5053083;28;20495;-69
2022/10/04 13:18:43;;;;;;;57.47;2.10;;;;;;;;;;5052743;28;20538;-68
2022/10/04 13:21:11;;;;;;;57.57;2.27;;;;;;;;;;5052333;28;20495;-69
2022/10/04 13:23:48;;;;;;;58.37;2.63;;;;;;;;;;5052398;28;20835;-69
2022/10/04 13:26:33;;;;;;;57.20;1.90;;;;;;;;;;5052388;28;20468;-69
2022/10/04 13:29:05;;;;;;;57.10;1.90;;;;;;;;;;5052315;28;20450;-69
2022/10/04 13:31:35;;;;;;;57.17;2.00;;;;;;;;;;5049767;28;20459;-69
2022/10/04 13:34:09;;;;;;;57.17;1.87;;;;;;;;;;5052436;28;20506;-69
2022/10/04 13:36:46;;;;;;;57.07;2.17;;;;;;;;;;5051529;28;20850;-69
2022/10/04 13:39:24;;;;;;;57.20;2.00;;;;;;;;;;5052077;28;20944;-69
2022/10/04 13:42:01;;;;;;;57.23;2.07;;;;;;;;;;5052389;28;20491;-69
2022/10/04 13:44:42;;;;;;;57.40;2.30;;;;;;;;;;5052319;28;20447;-69
2022/10/04 13:47:22;;;;;;;58.00;2.40;;;;;;;;;;5051336;28;20574;-69
2022/10/04 13:49:55;;;;;;;57.77;2.20;;;;;;;;;;5051808;28;20455;-68
2022/10/04 13:58:13;;;;;;;58.70;2.00;;;;;;;;;;5051411;28;20425;-68
2022/10/04 14:00:51;;;;;;;57.80;2.00;;;;;;;;;;5052079;28;20475;-68
2022/10/04 14:03:24;;;;;;;57.30;2.07;;;;;;;;;;5050044;28;20448;-68
2022/10/04 14:05:59;;;;;;;59.40;2.10;;;;;;;;;;5051802;28;20464;-68
2022/10/04 14:08:39;;;;;;;57.20;1.97;;;;;;;;;;5051995;28;20458;-69
2022/10/04 14:11:25;;;;;;;58.97;2.10;;;;;;;;;;5051765;28;20467;-68
2022/10/04 14:14:07;;;;;;;57.27;2.00;;;;;;;;;;5051370;28;21064;-68
2022/10/04 14:16:54;;;;;;;57.37;1.97;;;;;;;;;;5051995;28;20468;-68
2022/10/04 14:19:36;;;;;;;57.30;2.03;;;;;;;;;;5050855;28;20810;-68
2022/10/04 14:22:21;;;;;;;57.90;2.10;;;;;;;;;;5051826;28;20448;-68
2022/10/04 14:24:58;;;;;;;57.27;2.13;;;;;;;;;;5051471;28;20468;-68
2022/10/04 14:27:49;;;;;;;57.80;2.30;;;;;;;;;;5051629;28;20975;-68
2022/10/04 14:30:18;;;;;;;57.27;2.00;;;;;;;;;;5050476;28;20455;-68
2022/10/04 14:33:15;;;;;;;57.50;2.00;;;;;;;;;;5051218;28;20455;-68
2022/10/04 14:35:52;;;;;;;57.37;2.13;;;;;;;;;;5048862;28;20491;-68
2022/10/04 14:38:39;;;;;;;59.30;2.03;;;;;;;;;;5051699;28;20475;-68
2022/10/04 14:41:26;;;;;;;57.57;2.10;;;;;;;;;;5050935;28;20462;-68
2022/10/04 14:44:09;;;;;;;59.40;1.93;;;;;;;;;;5051518;28;20443;-68
2022/10/04 14:46:41;;;;;;;57.47;2.03;;;;;;;;;;5018844;28;20472;-68
2022/10/04 14:49:17;;;;;;;58.00;2.37;;;;;;;;;;5050511;28;20452;-68
2022/10/04 14:51:50;;;;;;;57.50;2.30;;;;;;;;;;5050849;28;20454;-68
2022/10/04 14:54:28;;;;;;;58.30;2.43;;;;;;;;;;5050569;28;20484;-68
2022/10/04 14:57:02;;;;;;;57.60;2.53;;;;;;;;;;5051399;28;20862;-68
2022/10/04 14:59:47;;;;;;;58.00;2.67;;;;;;;;;;5051477;28;20454;-68
2022/10/04 15:02:23;;;;;;;57.73;2.53;;;;;;;;;;5051070;28;20506;-68
2022/10/04 15:05:20;;;;;;;58.63;2.97;;;;;;;;;;5051179;28;20464;-67
2022/10/04 15:07:49;;;;;;;58.00;2.63;;;;;;;;;;4987276;28;20447;-67
2022/10/04 15:10:20;;;;;;;57.67;2.37;;;;;;;;;;5036990;28;20456;-68
2022/10/04 15:12:56;;;;;;;57.77;2.40;;;;;;;;;;5050619;28;20458;-67
2022/10/04 15:15:35;;;;;;;57.97;2.50;;;;;;;;;;5050406;28;20499;-67
2022/10/04 15:18:06;;;;;;;57.83;2.47;;;;;;;;;;5051050;28;20844;-67
2022/10/04 15:20:35;;;;;;;58.07;2.70;;;;;;;;;;5050809;28;20540;-67
2022/10/04 15:23:11;;;;;;;57.93;2.57;;;;;;;;;;5050810;28;20459;-67